createdAt,value
2023-01-17T00:05:17.222Z,65848.47
2023-01-17T00:10:24.649Z,65866.19
2023-01-17T00:15:32.329Z,65895.53
2023-01-17T00:20:54.966Z,65910.06
2023-01-17T00:26:05.429Z,65887.06
2023-01-17T00:31:11.575Z,65918.59
2023-01-17T00:36:15.076Z,65845.88
2023-01-17T00:41:19.331Z,65849.44
2023-01-17T00:46:42.812Z,65864.59
2023-01-17T00:52:04.802Z,65830.31
2023-01-17T00:57:27.147Z,65854.53
2023-01-17T01:02:50.705Z,65860.34
2023-01-17T01:08:12.785Z,65816.50
2023-01-17T01:13:34.619Z,65801.53
2023-01-17T01:18:58.937Z,65837.34
2023-01-17T01:24:20.720Z,65847.50
2023-01-17T01:29:42.961Z,65859.16
2023-01-17T01:34:49.001Z,65813.38
2023-01-17T01:39:53.550Z,65849.53
2023-01-17T01:44:58.157Z,65850.19
2023-01-17T01:50:08.672Z,65862.38
2023-01-17T01:55:17.430Z,65832.88
2023-01-17T02:00:29.351Z,65836.19
2023-01-17T02:05:36.836Z,65863.53
2023-01-17T02:10:44.094Z,65861.41
2023-01-17T02:16:00.470Z,65881.09
2023-01-17T02:21:24.960Z,65898.19
2023-01-17T02:26:55.887Z,65871.13
2023-01-17T02:32:09.640Z,65903.56
2023-01-17T02:37:20.148Z,65872.97
2023-01-17T02:42:28.195Z,65799.75
2023-01-17T02:47:34.181Z,65867.81
2023-01-17T02:53:02.407Z,65835.88
2023-01-17T02:58:20.937Z,65876.19
2023-01-17T03:03:34.440Z,65932.88
2023-01-17T03:08:41.417Z,65906.31
2023-01-17T03:13:45.896Z,65846.88
2023-01-17T03:18:53.984Z,65850.50
2023-01-17T03:23:58.565Z,65815.88
2023-01-17T03:29:03.709Z,65790.31
2023-01-17T03:34:09.707Z,65803.03
2023-01-17T03:39:14.361Z,65744.91
2023-01-17T03:44:18.832Z,65762.34
2023-01-17T03:49:24.837Z,65771.94
2023-01-17T03:54:28.956Z,65766.16
2023-01-17T03:59:34.174Z,65750.13
2023-01-17T04:04:40.807Z,65733.41
2023-01-17T04:09:47.938Z,65778.88
2023-01-17T04:14:55.544Z,65785.91
2023-01-17T04:20:04.947Z,65707.31
2023-01-17T04:25:11.700Z,65744.25
2023-01-17T04:30:19.154Z,65736.25
2023-01-17T04:35:29.013Z,65739.00
2023-01-17T04:40:36.584Z,65708.50
2023-01-17T04:45:44.448Z,65748.44
2023-01-17T04:50:53.239Z,65763.03
2023-01-17T04:56:00.983Z,65758.25
2023-01-17T05:01:10.866Z,65770.44
2023-01-17T05:06:20.048Z,65776.31
2023-01-17T05:11:29.458Z,65751.84
2023-01-17T05:16:37.269Z,65718.19
2023-01-17T05:21:46.421Z,65723.53
2023-01-17T05:26:55.319Z,65753.44
2023-01-17T05:32:03.345Z,65770.44
2023-01-17T05:37:12.499Z,65728.25
2023-01-17T05:42:20.563Z,65799.22
2023-01-17T05:47:28.440Z,65775.16
2023-01-17T05:52:37.482Z,65746.50
2023-01-17T05:57:46.200Z,65747.38
2023-01-17T06:02:57.104Z,65786.72
2023-01-17T06:08:07.460Z,65755.47
2023-01-17T06:13:21.320Z,65819.09
2023-01-17T06:18:28.696Z,65783.88
2023-01-17T06:23:37.619Z,65769.47
2023-01-17T06:28:44.023Z,65818.00
2023-01-17T06:33:51.269Z,65882.16
2023-01-17T06:39:00.474Z,65931.34
2023-01-17T06:44:09.586Z,65883.84
2023-01-17T06:49:17.517Z,65889.22
2023-01-17T06:54:26.472Z,65937.88
2023-01-17T06:59:35.776Z,66005.09
2023-01-17T07:04:42.937Z,66019.09
2023-01-17T07:09:52.154Z,65969.88
2023-01-17T07:14:59.759Z,65977.38
2023-01-17T07:20:07.285Z,65937.88
2023-01-17T07:25:14.688Z,65974.50
2023-01-17T07:30:22.924Z,65980.56
2023-01-17T07:35:30.085Z,66072.03
2023-01-17T07:40:42.213Z,66082.91
2023-01-17T07:45:52.345Z,65994.50
2023-01-17T07:51:00.761Z,66027.16
2023-01-17T07:56:10.840Z,66104.78
2023-01-17T08:01:19.630Z,66074.63
2023-01-17T08:06:29.820Z,66070.59
2023-01-17T08:11:38.412Z,66082.84
2023-01-17T08:16:45.017Z,66054.97
2023-01-17T08:21:51.452Z,66055.09
2023-01-17T08:26:59.073Z,66065.88
2023-01-17T08:32:05.372Z,66053.22
2023-01-17T08:37:13.003Z,66047.69
2023-01-17T08:42:21.655Z,66057.22
2023-01-17T08:47:29.315Z,65989.06
2023-01-17T08:52:36.774Z,65925.56
2023-01-17T08:57:44.408Z,65883.69
2023-01-17T09:03:05.179Z,65842.59
2023-01-17T09:08:14.268Z,65826.13
2023-01-17T09:13:21.668Z,65804.13
2023-01-17T09:18:28.914Z,65798.50
2023-01-17T09:23:34.552Z,65798.13
2023-01-17T09:28:43.299Z,65808.94
2023-01-17T09:33:48.947Z,65837.78
2023-01-17T09:39:00.141Z,65835.66
2023-01-17T09:44:19.551Z,65836.25
2023-01-17T09:49:45.567Z,65860.06
2023-01-17T09:54:52.956Z,65948.47
2023-01-17T10:00:13.541Z,65983.88
2023-01-17T10:05:40.609Z,65938.31
2023-01-17T10:10:57.969Z,65924.94
2023-01-17T10:16:22.113Z,65887.50
2023-01-17T10:21:42.282Z,65881.19
2023-01-17T10:26:52.267Z,65869.22
2023-01-17T10:32:02.588Z,65826.56
2023-01-17T10:37:26.361Z,65798.97
2023-01-17T10:42:51.186Z,65783.88
2023-01-17T10:48:05.170Z,65906.41
2023-01-17T10:53:22.543Z,65898.72
2023-01-17T10:58:28.248Z,65784.31
2023-01-17T11:03:35.915Z,65863.53
2023-01-17T11:08:53.799Z,65846.34
2023-01-17T11:14:03.619Z,65795.13
2023-01-17T11:19:19.569Z,65770.97
2023-01-17T11:24:35.876Z,65807.97
2023-01-17T11:29:43.798Z,65801.97
2023-01-17T11:35:08.525Z,65772.03
2023-01-17T11:40:26.096Z,65769.47
2023-01-17T11:45:35.681Z,65750.06
2023-01-17T11:50:48.033Z,65686.16
2023-01-17T11:55:57.341Z,65701.97
2023-01-17T12:01:19.224Z,65666.94
2023-01-17T12:06:51.710Z,65719.06
2023-01-17T12:12:30.745Z,65753.44
2023-01-17T12:17:55.913Z,65655.00
2023-01-17T12:23:22.570Z,65693.97
2023-01-17T12:28:55.835Z,65640.69
2023-01-17T12:34:19.793Z,65663.09
2023-01-17T12:39:32.484Z,65658.75
2023-01-17T12:44:53.009Z,65618.19
2023-01-17T12:50:09.178Z,65646.66
2023-01-17T12:55:22.555Z,65690.94
2023-01-17T13:00:32.527Z,65713.94
2023-01-17T13:05:42.416Z,65719.78
2023-01-17T13:10:54.654Z,65720.31
2023-01-17T13:16:07.550Z,65804.31
2023-01-17T13:21:30.730Z,65923.59
2023-01-17T13:26:54.777Z,65984.66
2023-01-17T13:32:12.691Z,66064.09
2023-01-17T13:37:42.804Z,66198.75
2023-01-17T13:42:59.197Z,66232.31
2023-01-17T13:48:30.991Z,66310.03
2023-01-17T13:53:59.227Z,66297.31
2023-01-17T13:59:31.300Z,66373.50
2023-01-17T14:05:11.771Z,66361.63
2023-01-17T14:10:39.462Z,66260.41
2023-01-17T14:15:53.511Z,66208.38
2023-01-17T14:21:14.817Z,66142.03
2023-01-17T14:26:37.310Z,66160.59
2023-01-17T14:31:44.950Z,66178.00
2023-01-17T14:36:52.095Z,66096.84
2023-01-17T14:41:59.943Z,66024.19
2023-01-17T14:47:08.894Z,65987.44
2023-01-17T14:52:20.037Z,65939.28
2023-01-17T14:57:28.870Z,65815.25
2023-01-17T15:02:35.339Z,65787.97
2023-01-17T15:07:41.788Z,65770.00
2023-01-17T15:12:47.891Z,65726.13
2023-01-17T15:18:08.705Z,65810.00
2023-01-17T15:23:18.351Z,65744.91
2023-01-17T15:28:24.210Z,65746.50
2023-01-17T15:33:36.032Z,65724.59
2023-01-17T15:38:54.075Z,65732.72
2023-01-17T15:43:58.995Z,65695.56
2023-01-17T15:49:17.985Z,65632.59
2023-01-17T15:54:37.869Z,65623.72
2023-01-17T15:59:46.736Z,65663.75
2023-01-17T16:04:52.735Z,65717.56
2023-01-17T16:10:06.695Z,65670.13
2023-01-17T16:15:13.395Z,65759.66
2023-01-17T16:20:23.017Z,65768.19
2023-01-17T16:25:32.434Z,65712.56
2023-01-17T16:30:37.723Z,65698.78
2023-01-17T16:35:44.236Z,65747.91
2023-01-17T16:40:49.608Z,65695.78
2023-01-17T16:45:55.764Z,65722.66
2023-01-17T16:51:07.043Z,65665.34
2023-01-17T16:56:14.613Z,65695.69
2023-01-17T17:01:21.357Z,65736.06
2023-01-17T17:06:27.694Z,65734.22
2023-01-17T17:11:32.170Z,65757.72
2023-01-17T17:16:36.985Z,65782.81
2023-01-17T17:21:42.899Z,65776.41
2023-01-17T17:26:47.399Z,65772.47
2023-01-17T17:31:52.103Z,65787.66
2023-01-17T17:36:57.951Z,65775.59
2023-01-17T17:42:02.548Z,65663.09
2023-01-17T17:47:06.995Z,65769.03
2023-01-17T17:52:12.842Z,65835.19
2023-01-17T17:57:17.342Z,65669.50
2023-01-17T18:02:21.821Z,65722.28
2023-01-17T18:07:28.236Z,65775.69
2023-01-17T18:12:32.892Z,65768.94
2023-01-17T18:17:37.400Z,65757.19
2023-01-17T18:22:43.486Z,65697.81
2023-01-17T18:27:47.566Z,65643.69
2023-01-17T18:32:52.053Z,65751.84
2023-01-17T18:38:00.222Z,65783.78
2023-01-17T18:43:04.809Z,65794.59
2023-01-17T18:48:09.183Z,65843.66
2023-01-17T18:53:15.053Z,65871.47
2023-01-17T18:58:19.163Z,65884.84
2023-01-17T19:03:29.003Z,65848.56
2023-01-17T19:08:36.265Z,65899.72
2023-01-17T19:13:42.003Z,65882.78
2023-01-17T19:18:46.381Z,65860.25
2023-01-17T19:23:52.611Z,65900.31
2023-01-17T19:28:58.876Z,65901.50
2023-01-17T19:34:05.752Z,65940.44
2023-01-17T19:39:11.807Z,65968.44
2023-01-17T19:44:16.799Z,65922.34
2023-01-17T19:49:24.752Z,65902.47
2023-01-17T19:54:30.663Z,65973.06
2023-01-17T19:59:35.159Z,65954.44
2023-01-17T20:04:39.554Z,65891.25
2023-01-17T20:09:45.448Z,65929.84
2023-01-17T20:14:49.945Z,65826.66
2023-01-17T20:19:54.504Z,65738.47
2023-01-17T20:25:00.704Z,65857.13
2023-01-17T20:30:19.288Z,65742.22
2023-01-17T20:35:24.696Z,65647.53
2023-01-17T20:40:30.552Z,65687.66
2023-01-17T20:45:35.512Z,65810.97
2023-01-17T20:50:40.122Z,65739.38
2023-01-17T20:55:46.183Z,65775.25
2023-01-17T21:00:52.519Z,65758.78
2023-01-17T21:06:02.844Z,65778.88
2023-01-17T21:11:10.400Z,65769.47
2023-01-17T21:16:16.479Z,65761.97
2023-01-17T21:21:23.119Z,65798.13
2023-01-17T21:26:30.366Z,65797.16
2023-01-17T21:31:36.821Z,65777.56
2023-01-17T21:36:43.359Z,65741.69
2023-01-17T21:41:51.008Z,65688.19
2023-01-17T21:46:56.566Z,65728.34
2023-01-17T21:52:18.090Z,65759.03
2023-01-17T21:57:41.892Z,65774.69
2023-01-17T22:02:47.183Z,65613.38
2023-01-17T22:08:12.603Z,65656.78
2023-01-17T22:13:19.808Z,65628.41
2023-01-17T22:18:24.136Z,65607.16
2023-01-17T22:23:28.524Z,65714.25
2023-01-17T22:28:35.114Z,65637.94
2023-01-17T22:33:40.675Z,65645.16
2023-01-17T22:38:45.832Z,65589.03
2023-01-17T22:43:54.423Z,65545.19
2023-01-17T22:49:00.144Z,65620.84
2023-01-17T22:54:04.473Z,65568.13
2023-01-17T22:59:12.943Z,65571.97
2023-01-17T23:04:19.800Z,65570.25
2023-01-17T23:09:24.367Z,65567.94
2023-01-17T23:14:49.707Z,65523.97
2023-01-17T23:19:55.700Z,65524.84
2023-01-17T23:25:02.398Z,65543.41
2023-01-17T23:30:11.268Z,65542.44
2023-01-17T23:35:16.615Z,65532.50
2023-01-17T23:40:21.187Z,65498.81
2023-01-17T23:45:27.311Z,65493.59
2023-01-17T23:50:31.716Z,65460.00
2023-01-17T23:55:37.861Z,65447.56
